Time;durP1;ratioP1;P1;durP2;ratioP2;P2;SDS_P1;SDS_P2;PMS_P1;PMS_P2;Temp;Humidity;BMP_temperature;BMP_pressure;BME280_temperature;BME280_humidity;BME280_pressure;Samples;Min_cycle;Max_cycle;Signal;HPM_P1;HPM_P2
2021/07/23 00:01:47;;;;;;;24.65;9.35;;;;;;;17.11;74.64;100641.06;5085531;28;20111;-70
2021/07/23 00:04:15;;;;;;;30.85;10.38;;;;;;;17.08;74.95;100644.66;5085500;28;20076;-70
2021/07/23 00:06:41;;;;;;;27.13;9.90;;;;;;;17.04;74.95;100645.63;5085416;28;20020;-69
2021/07/23 00:09:06;;;;;;;27.65;8.82;;;;;;;17.08;74.58;100655.13;5085530;28;20035;-70
2021/07/23 00:11:31;;;;;;;23.95;10.35;;;;;;;17.12;74.43;100655.03;5085637;28;20024;-70
2021/07/23 00:13:57;;;;;;;29.70;10.40;;;;;;;17.16;74.43;100647.00;5085401;28;20023;-70
2021/07/23 00:16:22;;;;;;;33.97;10.98;;;;;;;17.14;74.56;100643.56;5086061;28;20021;-70
2021/07/23 00:18:47;;;;;;;24.90;11.18;;;;;;;17.14;74.64;100659.31;5085518;28;20021;-69
2021/07/23 00:21:13;;;;;;;21.02;10.93;;;;;;;17.15;74.83;100654.94;5085711;28;20039;-70
2021/07/23 00:23:38;;;;;;;30.45;11.57;;;;;;;17.18;74.73;100650.47;5083234;28;20032;-70
2021/07/23 00:26:12;;;;;;;30.25;11.32;;;;;;;17.29;74.32;100646.59;5085394;28;20030;-69
2021/07/23 00:28:37;;;;;;;28.90;12.10;;;;;;;17.34;74.39;100650.81;5085254;28;20020;-70
2021/07/23 00:31:03;;;;;;;32.60;11.40;;;;;;;17.36;74.40;100645.53;5084931;28;20054;-69
2021/07/23 00:33:28;;;;;;;31.08;10.75;;;;;;;17.42;74.33;100653.19;5085045;28;20098;-69
2021/07/23 00:35:53;;;;;;;30.15;12.05;;;;;;;17.44;74.42;100647.88;5085104;28;20088;-69
2021/07/23 00:38:19;;;;;;;32.40;12.60;;;;;;;17.48;74.39;100657.34;5085002;28;20035;-69
2021/07/23 00:40:45;;;;;;;29.33;11.95;;;;;;;17.47;74.64;100658.28;5084916;28;20024;-69
2021/07/23 00:43:10;;;;;;;31.43;11.20;;;;;;;17.48;74.52;100656.53;5084788;28;20031;-69
2021/07/23 00:45:35;;;;;;;26.40;11.15;;;;;;;17.54;74.52;100657.16;5084790;28;20040;-69
2021/07/23 00:48:01;;;;;;;28.05;12.73;;;;;;;17.56;74.50;100657.09;5083368;28;20032;-69
2021/07/23 00:50:28;;;;;;;22.48;12.02;;;;;;;17.59;74.28;100657.00;5083314;28;20096;-69
2021/07/23 00:52:54;;;;;;;25.33;11.45;;;;;;;17.58;74.10;100661.41;5084488;28;20016;-69
2021/07/23 00:55:20;;;;;;;25.55;11.23;;;;;;;17.58;74.30;100658.78;5084604;28;20024;-69
2021/07/23 00:57:46;;;;;;;25.25;11.85;;;;;;;17.55;74.10;100661.50;5084403;28;20052;-69
2021/07/23 01:00:12;;;;;;;31.70;12.75;;;;;;;17.61;74.00;100673.56;5083048;28;20032;-69
2021/07/23 01:02:38;;;;;;;26.88;11.20;;;;;;;17.61;73.88;100656.94;5084212;28;20040;-69
2021/07/23 01:05:04;;;;;;;27.92;12.75;;;;;;;17.65;73.76;100663.81;5084070;28;20033;-69
2021/07/23 01:07:30;;;;;;;25.33;11.93;;;;;;;17.72;73.41;100665.31;5084445;28;20305;-69
2021/07/23 01:09:58;;;;;;;27.35;11.85;;;;;;;17.70;73.34;100668.00;5084241;28;20073;-69
2021/07/23 01:12:24;;;;;;;25.13;12.80;;;;;;;17.68;73.21;100666.34;5084142;28;20090;-69
2021/07/23 01:14:49;;;;;;;24.75;11.70;;;;;;;17.69;73.36;100671.53;5084157;28;20461;-69
2021/07/23 01:17:15;;;;;;;26.75;11.82;;;;;;;17.70;73.20;100678.50;5083970;28;20161;-69
2021/07/23 01:20:23;;;;;;;31.70;13.10;;;;;;;17.72;73.21;100670.56;5084498;28;20028;-69
2021/07/23 01:22:49;;;;;;;33.05;12.68;;;;;;;17.77;72.71;100678.28;5083986;28;20043;-69
2021/07/23 01:25:15;;;;;;;34.50;12.93;;;;;;;17.73;72.83;100677.53;5084227;28;20040;-69
2021/07/23 01:27:48;;;;;;;33.45;13.10;;;;;;;17.63;72.98;100669.13;5083837;28;20047;-69
2021/07/23 01:30:15;;;;;;;27.08;13.02;;;;;;;17.68;73.05;100679.47;5084285;28;20100;-69
2021/07/23 01:32:40;;;;;;;31.20;12.55;;;;;;;17.70;72.86;100678.50;5083877;28;20066;-69
2021/07/23 01:35:07;;;;;;;31.73;12.55;;;;;;;17.70;72.54;100678.50;5083841;28;20362;-69
2021/07/23 01:37:33;;;;;;;31.55;11.98;;;;;;;17.68;72.66;100679.47;5083924;28;20056;-69
2021/07/23 01:39:59;;;;;;;29.67;12.57;;;;;;;17.65;72.41;100675.16;5083841;28;20063;-69
2021/07/23 01:42:26;;;;;;;28.58;12.82;;;;;;;17.64;72.46;100675.22;5083578;28;20120;-69
2021/07/23 01:44:52;;;;;;;24.92;12.40;;;;;;;17.59;72.28;100672.75;5083678;28;20373;-69
2021/07/23 01:47:17;;;;;;;35.55;13.68;;;;;;;17.56;72.29;100675.47;5083650;28;20020;-69
2021/07/23 01:49:42;;;;;;;31.52;13.02;;;;;;;17.54;72.35;100678.16;5082394;28;20024;-69
2021/07/23 01:52:08;;;;;;;25.92;13.32;;;;;;;17.49;72.16;100682.72;5083691;28;20020;-69
2021/07/23 01:54:33;;;;;;;33.53;14.10;;;;;;;17.46;72.12;100681.03;5083796;28;20016;-69
2021/07/23 01:56:59;;;;;;;26.45;13.07;;;;;;;17.44;72.22;100687.25;5082238;28;20132;-69
2021/07/23 01:59:24;;;;;;;30.75;12.45;;;;;;;17.43;72.23;100685.50;5083643;28;20028;-69
2021/07/23 02:01:49;;;;;;;31.83;13.93;;;;;;;17.42;72.33;100682.06;5083520;28;20024;-69
2021/07/23 02:04:15;;;;;;;32.03;12.57;;;;;;;17.43;72.21;100682.88;5083496;28;20051;-68
2021/07/23 02:06:40;;;;;;;33.95;13.63;;;;;;;17.44;71.98;100682.00;5083548;28;20124;-68
2021/07/23 02:09:05;;;;;;;28.13;13.02;;;;;;;17.37;72.25;100683.09;5083635;28;20067;-68
2021/07/23 02:11:31;;;;;;;37.40;15.15;;;;;;;17.33;72.48;100685.81;5083440;28;20016;-67
2021/07/23 02:13:57;;;;;;;33.50;13.70;;;;;;;17.35;72.40;100683.13;5083439;28;20017;-69
2021/07/23 02:16:24;;;;;;;31.50;14.77;;;;;;;17.33;72.40;100680.56;5083453;28;20020;-69
2021/07/23 02:18:50;;;;;;;34.25;14.55;;;;;;;17.36;72.07;100687.50;5083330;28;20468;-69
2021/07/23 02:21:15;;;;;;;28.85;14.05;;;;;;;17.33;72.21;100684.97;5083525;28;20054;-69
2021/07/23 02:23:41;;;;;;;37.25;15.07;;;;;;;17.32;72.15;100680.63;5083366;28;20029;-69
2021/07/23 02:26:16;;;;;;;30.08;15.70;;;;;;;17.33;71.69;100685.81;5083245;28;20449;-69
2021/07/23 02:28:41;;;;;;;33.88;14.35;;;;;;;17.23;71.97;100679.16;5083476;28;20032;-69
2021/07/23 02:31:06;;;;;;;33.38;15.25;;;;;;;17.19;72.22;100688.03;5083282;28;20340;-69
2021/07/23 02:33:32;;;;;;;43.80;15.07;;;;;;;17.19;71.96;100681.03;5083423;28;20486;-69
2021/07/23 02:35:57;;;;;;;33.60;15.10;;;;;;;17.18;72.01;100689.81;5083300;28;20020;-68
2021/07/23 02:38:22;;;;;;;33.63;14.50;;;;;;;17.15;71.80;100692.53;5083093;28;20511;-69
2021/07/23 02:40:48;;;;;;;36.95;15.65;;;;;;;17.12;71.97;100690.00;5083221;28;20055;-69
2021/07/23 02:43:13;;;;;;;33.83;14.90;;;;;;;17.08;71.95;100685.75;5083063;28;20032;-69
2021/07/23 02:45:38;;;;;;;30.90;14.05;;;;;;;17.02;72.20;100692.03;5083146;28;20047;-69
2021/07/23 02:48:04;;;;;;;30.15;14.15;;;;;;;16.97;72.31;100699.16;5086729;28;20115;-69
2021/07/23 02:50:29;;;;;;;41.10;14.80;;;;;;;16.96;72.14;100694.84;5087221;28;20376;-69
2021/07/23 02:52:55;;;;;;;32.05;14.60;;;;;;;16.93;72.35;100692.31;5086678;28;20036;-69
2021/07/23 02:55:21;;;;;;;32.33;14.50;;;;;;;16.97;72.21;100704.41;5087023;28;20053;-69
2021/07/23 02:57:46;;;;;;;28.85;12.73;;;;;;;16.98;72.34;100701.72;5086700;28;20041;-69
2021/07/23 03:00:12;;;;;;;29.00;14.25;;;;;;;16.98;72.18;100700.91;5086791;28;20080;-69
2021/07/23 03:02:37;;;;;;;30.45;14.60;;;;;;;16.98;72.19;100706.16;5086518;28;20441;-69
2021/07/23 03:05:03;;;;;;;31.85;15.48;;;;;;;17.00;72.27;100701.69;5086678;28;20025;-69
2021/07/23 03:07:28;;;;;;;34.72;13.93;;;;;;;17.03;72.03;100703.38;5086865;28;20021;-69
2021/07/23 03:09:54;;;;;;;27.73;14.27;;;;;;;17.05;72.12;100704.16;5086543;28;20032;-69
2021/07/23 03:12:19;;;;;;;37.00;16.20;;;;;;;17.08;71.90;100698.84;5086653;28;20024;-69
2021/07/23 03:14:46;;;;;;;28.25;13.80;;;;;;;17.05;72.34;100704.16;5085105;28;20020;-69
2021/07/23 03:17:11;;;;;;;29.55;15.25;;;;;;;17.09;71.97;100708.47;5085050;28;20040;-69
2021/07/23 03:19:37;;;;;;;33.08;13.55;;;;;;;17.12;72.06;100713.59;5086363;28;20027;-69
2021/07/23 03:22:02;;;;;;;33.92;15.25;;;;;;;17.03;72.06;100704.22;5086231;28;20506;-69
2021/07/23 03:24:28;;;;;;;36.83;16.30;;;;;;;16.96;72.22;100703.53;5086190;28;20051;-69
2021/07/23 03:26:53;;;;;;;39.85;15.73;;;;;;;17.01;72.54;100713.91;5086438;28;20042;-69
2021/07/23 03:29:19;;;;;;;32.67;14.90;;;;;;;17.01;72.55;100708.66;5086407;28;20028;-69
2021/07/23 03:31:44;;;;;;;39.53;17.17;;;;;;;17.06;72.41;100714.59;5086245;28;20027;-69
2021/07/23 03:34:09;;;;;;;32.60;15.13;;;;;;;17.08;72.30;100715.47;5086073;28;20024;-69
2021/07/23 03:36:34;;;;;;;31.10;15.35;;;;;;;17.02;72.45;100707.75;5086184;28;20032;-69
2021/07/23 03:39:00;;;;;;;32.58;15.73;;;;;;;17.06;72.42;100721.63;5086064;28;20028;-69
2021/07/23 03:41:25;;;;;;;33.58;15.57;;;;;;;17.08;72.48;100719.84;5086169;28;20044;-69
2021/07/23 03:43:50;;;;;;;31.48;15.80;;;;;;;17.12;72.43;100712.75;5085857;28;20027;-69
2021/07/23 03:46:16;;;;;;;28.73;15.90;;;;;;;17.16;72.43;100711.72;5085642;28;20024;-69
2021/07/23 03:48:41;;;;;;;33.47;15.88;;;;;;;17.11;71.89;100697.91;5085796;28;20046;-69
2021/07/23 03:51:07;;;;;;;43.10;17.63;;;;;;;17.02;72.23;100701.63;5086264;28;20024;-68
2021/07/23 03:53:32;;;;;;;33.00;16.58;;;;;;;17.03;72.39;100691.09;5085855;28;20017;-69
2021/07/23 03:55:57;;;;;;;34.90;16.42;;;;;;;17.07;72.40;100694.50;5085902;28;20016;-68
2021/07/23 03:58:25;;;;;;;38.88;16.77;;;;;;;17.16;71.97;100693.38;5084524;28;20047;-68
2021/07/23 04:00:50;;;;;;;40.38;17.25;;;;;;;17.22;71.94;100690.56;5085774;28;20074;-69
2021/07/23 04:03:15;;;;;;;27.95;15.70;;;;;;;17.24;71.82;100701.03;5085432;28;20028;-68
2021/07/23 04:05:41;;;;;;;32.72;15.27;;;;;;;17.20;71.98;100687.13;5085494;28;20028;-68
2021/07/23 04:08:06;;;;;;;40.60;16.38;;;;;;;17.26;71.54;100693.94;5085452;28;20058;-72
2021/07/23 04:10:31;;;;;;;34.55;16.77;;;;;;;17.28;71.56;100693.00;5085271;28;20088;-78
2021/07/23 04:12:57;;;;;;;32.60;16.02;;;;;;;17.38;71.25;100696.16;5085248;28;20395;-78
2021/07/23 04:15:22;;;;;;;28.15;15.00;;;;;;;17.45;71.04;100700.31;5085388;28;20438;-78
2021/07/23 04:17:48;;;;;;;32.22;15.05;;;;;;;17.50;70.90;100694.06;5083876;28;20024;-75
2021/07/23 04:20:14;;;;;;;30.88;14.70;;;;;;;17.54;70.27;100701.78;5085142;28;20032;-74
2021/07/23 04:22:39;;;;;;;26.75;15.02;;;;;;;17.57;69.98;100701.66;5084911;28;20021;-73
2021/07/23 04:25:05;;;;;;;24.83;14.52;;;;;;;17.61;69.72;100698.94;5084526;28;20124;-72
2021/07/23 04:27:31;;;;;;;28.85;14.82;;;;;;;17.68;69.80;100705.72;5084926;28;20036;-71
2021/07/23 04:29:56;;;;;;;26.00;14.05;;;;;;;17.68;69.66;100698.69;5084864;28;20031;-71
2021/07/23 04:32:22;;;;;;;31.35;15.15;;;;;;;17.70;69.55;100689.00;5084515;28;20089;-71
2021/07/23 04:34:47;;;;;;;29.35;14.85;;;;;;;17.80;69.61;100707.94;5084894;28;20112;-71
2021/07/23 04:37:12;;;;;;;29.83;14.90;;;;;;;17.89;69.20;100705.91;5085076;28;20028;-72
2021/07/23 04:39:37;;;;;;;33.30;15.25;;;;;;;17.94;69.03;100699.56;5084966;28;20523;-73
2021/07/23 04:42:06;;;;;;;29.58;14.43;;;;;;;18.07;69.00;100699.13;5084797;28;20084;-72
2021/07/23 04:44:32;;;;;;;24.88;14.05;;;;;;;18.26;68.72;100701.16;5084770;28;20108;-72
2021/07/23 04:47:01;;;;;;;28.73;14.43;;;;;;;18.52;68.47;100705.44;5084620;28;20025;-71
2021/07/23 04:49:27;;;;;;;29.65;14.48;;;;;;;18.86;67.98;100691.94;5084758;28;20024;-73
2021/07/23 04:51:53;;;;;;;25.20;12.48;;;;;;;19.34;66.79;100705.00;5084867;28;20020;-73
2021/07/23 04:54:19;;;;;;;24.10;13.18;;;;;;;19.74;65.30;100699.88;5084641;28;20020;-73
2021/07/23 04:56:45;;;;;;;29.27;15.13;;;;;;;19.91;64.67;100692.09;5084065;28;20504;-71
2021/07/23 04:59:11;;;;;;;24.98;12.25;;;;;;;20.13;63.83;100693.81;5084605;28;20448;-72
2021/07/23 05:01:36;;;;;;;26.90;13.43;;;;;;;20.24;63.33;100698.59;5084473;28;20024;-71
2021/07/23 05:04:01;;;;;;;22.95;13.43;;;;;;;20.53;63.07;100703.47;5084264;28;20028;-71
2021/07/23 05:06:27;;;;;;;25.33;12.90;;;;;;;21.08;62.01;100699.22;5084447;28;20103;-73
2021/07/23 05:08:52;;;;;;;21.95;12.02;;;;;;;21.61;60.37;100703.72;5084060;28;20033;-70
2021/07/23 05:11:18;;;;;;;22.30;11.90;;;;;;;22.13;59.26;100713.44;5084395;28;20072;-71
2021/07/23 05:13:44;;;;;;;23.65;11.68;;;;;;;22.78;57.59;100710.91;5083042;28;20028;-71
2021/07/23 05:16:09;;;;;;;23.90;12.52;;;;;;;23.19;55.64;100709.53;5084540;28;20097;-74
2021/07/23 05:18:39;;;;;;;23.65;12.88;;;;;;;23.28;54.73;100703.72;5084411;28;20044;-74
2021/07/23 05:21:06;;;;;;;22.63;11.85;;;;;;;23.06;53.01;100709.38;5084451;28;20020;-72
2021/07/23 05:23:33;;;;;;;22.83;12.80;;;;;;;22.64;52.73;100709.03;5082925;28;20044;-73
2021/07/23 05:25:58;;;;;;;17.73;11.13;;;;;;;22.35;53.18;100700.88;5084238;28;20020;-73
2021/07/23 05:28:25;;;;;;;23.90;12.63;;;;;;;22.02;53.89;100708.69;5084132;28;20476;-72
2021/07/23 05:30:50;;;;;;;27.00;11.50;;;;;;;22.28;54.63;100710.91;5083976;28;20031;-72
2021/07/23 05:33:16;;;;;;;21.60;11.57;;;;;;;22.92;53.80;100707.50;5084094;28;20024;-72
2021/07/23 05:35:41;;;;;;;23.75;11.05;;;;;;;23.70;51.90;100707.56;5084234;28;20465;-73
2021/07/23 05:38:15;;;;;;;22.50;12.07;;;;;;;24.10;50.23;100699.84;5084279;28;20026;-74
2021/07/23 05:40:43;;;;;;;23.30;11.32;;;;;;;24.24;48.92;100701.69;5084348;28;20054;-72
2021/07/23 05:43:09;;;;;;;22.30;10.98;;;;;;;24.30;48.16;100704.91;5083876;28;20033;-72
2021/07/23 05:45:40;;;;;;;22.70;11.75;;;;;;;24.37;48.34;100703.56;5083985;28;20035;-72
2021/07/23 05:48:07;;;;;;;20.38;10.73;;;;;;;24.61;47.59;100708.28;5084105;28;20028;-73
2021/07/23 05:50:33;;;;;;;22.35;12.02;;;;;;;24.83;46.48;100697.16;5084327;28;20075;-72
2021/07/23 05:52:58;;;;;;;26.45;11.60;;;;;;;24.64;46.94;100705.44;5083847;28;20024;-72
2021/07/23 05:55:24;;;;;;;18.92;11.40;;;;;;;24.82;47.08;100700.75;5084007;28;20473;-75
2021/07/23 05:57:50;;;;;;;18.35;11.23;;;;;;;25.08;46.51;100706.19;5083925;28;20107;-73
2021/07/23 06:00:15;;;;;;;21.50;11.27;;;;;;;25.42;46.02;100699.59;5083910;28;20040;-73
2021/07/23 06:02:41;;;;;;;18.80;10.13;;;;;;;26.08;44.89;100717.38;5083909;28;20047;-73
2021/07/23 06:05:07;;;;;;;22.38;11.27;;;;;;;26.60;43.71;100715.50;5082620;28;20020;-74
2021/07/23 06:07:32;;;;;;;18.10;10.75;;;;;;;26.72;42.97;100719.13;5083885;28;20024;-74
2021/07/23 06:09:58;;;;;;;20.85;11.07;;;;;;;26.77;42.54;100707.28;5084093;28;20028;-74
2021/07/23 06:12:23;;;;;;;19.40;11.43;;;;;;;26.89;42.29;100725.00;5083728;28;20052;-74
2021/07/23 06:14:49;;;;;;;16.48;10.52;;;;;;;26.53;41.40;100721.38;5083954;28;20344;-72
2021/07/23 06:17:14;;;;;;;18.48;10.90;;;;;;;26.48;41.76;100727.03;5083992;28;20044;-73
2021/07/23 06:19:41;;;;;;;22.15;9.88;;;;;;;26.64;42.48;100720.63;5084065;28;20482;-73
2021/07/23 06:22:06;;;;;;;17.70;10.60;;;;;;;26.97;41.41;100727.13;5086185;28;20037;-73
2021/07/23 06:24:33;;;;;;;17.80;10.00;;;;;;;26.94;40.42;100728.19;5086348;28;20213;-71
2021/07/23 06:26:58;;;;;;;17.48;10.60;;;;;;;26.78;40.93;100730.25;5088064;28;20032;-74
2021/07/23 06:29:24;;;;;;;19.70;10.75;;;;;;;27.03;41.34;100731.19;5087786;28;20029;-73
2021/07/23 06:31:49;;;;;;;16.15;10.75;;;;;;;27.28;40.59;100726.69;5087994;28;20017;-73
2021/07/23 06:34:14;;;;;;;17.60;9.98;;;;;;;27.82;39.61;100732.47;5087632;28;20504;-73
2021/07/23 06:36:40;;;;;;;16.17;10.15;;;;;;;28.53;38.61;100727.94;5087606;28;20209;-73
2021/07/23 06:39:05;;;;;;;15.98;9.45;;;;;;;28.82;37.45;100733.56;5087620;28;20032;-74
2021/07/23 06:41:30;;;;;;;19.25;10.65;;;;;;;28.31;37.33;100735.81;5086186;28;20012;-75
2021/07/23 06:43:56;;;;;;;19.52;9.75;;;;;;;27.57;38.66;100729.81;5087201;28;20024;-72
2021/07/23 06:46:21;;;;;;;17.70;9.77;;;;;;;27.59;39.17;100727.03;5087547;28;20024;-73
2021/07/23 06:48:47;;;;;;;18.45;9.98;;;;;;;27.76;38.37;100732.94;5087362;28;20024;-73
2021/07/23 06:51:13;;;;;;;16.48;9.45;;;;;;;27.78;38.69;100739.00;5087295;28;20024;-73
2021/07/23 06:53:39;;;;;;;19.50;10.68;;;;;;;27.45;38.47;100725.41;5087039;28;20024;-73
2021/07/23 06:56:05;;;;;;;17.27;10.32;;;;;;;27.47;38.75;100729.69;5087233;28;20028;-73
2021/07/23 06:58:30;;;;;;;16.38;9.90;;;;;;;27.55;38.59;100725.59;5086033;28;20420;-73
2021/07/23 07:00:56;;;;;;;22.00;10.45;;;;;;;27.64;38.51;100722.22;5087401;28;20027;-73
2021/07/23 07:03:21;;;;;;;15.50;10.50;;;;;;;27.40;39.29;100720.44;5086732;28;20028;-72
2021/07/23 07:05:50;;;;;;;14.57;8.68;;;;;;;27.58;39.01;100715.53;5086882;28;20032;-72
2021/07/23 07:08:17;;;;;;;14.10;9.48;;;;;;;28.19;38.21;100726.94;5087151;28;20028;-71
2021/07/23 07:10:42;;;;;;;19.20;10.35;;;;;;;28.36;37.24;100723.91;5087159;28;20028;-71
2021/07/23 07:13:07;;;;;;;15.77;9.13;;;;;;;28.18;37.85;100717.22;5086815;28;20020;-70
2021/07/23 07:15:33;;;;;;;16.75;9.13;;;;;;;28.43;37.62;100725.16;5086507;28;20119;-71
2021/07/23 07:17:59;;;;;;;18.27;10.20;;;;;;;28.76;36.92;100725.22;5086632;28;20477;-70
2021/07/23 07:20:25;;;;;;;15.00;8.85;;;;;;;29.06;36.11;100729.91;5086537;28;20032;-71
2021/07/23 07:22:55;;;;;;;15.82;9.73;;;;;;;29.21;35.70;100726.94;5086426;28;20025;-71
2021/07/23 07:25:21;;;;;;;18.55;9.23;;;;;;;29.52;35.33;100724.34;5086529;28;20025;-71
2021/07/23 07:27:47;;;;;;;15.60;9.13;;;;;;;29.67;34.80;100703.53;5086428;28;20036;-72
2021/07/23 07:30:12;;;;;;;13.23;8.88;;;;;;;30.18;34.41;100727.75;5086675;28;20111;-71
2021/07/23 07:32:38;;;;;;;13.50;9.23;;;;;;;30.46;33.51;100734.34;5086188;28;20035;-71
2021/07/23 07:35:04;;;;;;;15.18;8.93;;;;;;;30.53;33.19;100727.44;5086597;28;20020;-71
2021/07/23 07:37:30;;;;;;;11.27;8.30;;;;;;;30.77;33.04;100734.28;5085180;28;20040;-71
2021/07/23 07:39:55;;;;;;;15.13;9.45;;;;;;;31.07;32.29;100743.25;5086206;28;20035;-72
2021/07/23 07:42:21;;;;;;;14.82;8.48;;;;;;;31.12;32.37;100745.50;5086303;28;20146;-72
2021/07/23 07:44:48;;;;;;;14.50;8.80;;;;;;;31.36;31.47;100747.75;5086153;28;20020;-71
2021/07/23 07:47:14;;;;;;;12.25;8.23;;;;;;;31.34;31.10;100741.72;5086220;28;20050;-71
2021/07/23 07:49:39;;;;;;;14.85;8.75;;;;;;;30.85;31.74;100742.50;5086254;28;20021;-71
2021/07/23 07:52:04;;;;;;;14.82;9.18;;;;;;;30.72;32.16;100739.22;5085996;28;20028;-71
2021/07/23 07:54:31;;;;;;;21.15;9.23;;;;;;;31.02;32.39;100734.78;5085975;28;20074;-72
2021/07/23 07:56:57;;;;;;;17.90;9.07;;;;;;;31.23;31.54;100736.47;5085831;28;20049;-71
2021/07/23 07:59:23;;;;;;;14.63;8.43;;;;;;;31.79;30.73;100731.38;5085911;28;20489;-71
2021/07/23 08:01:49;;;;;;;13.85;8.30;;;;;;;32.17;29.87;100738.63;5085847;28;20028;-71
2021/07/23 08:04:14;;;;;;;13.73;9.00;;;;;;;32.32;29.31;100731.75;5085713;28;20025;-72
2021/07/23 08:06:42;;;;;;;11.93;9.18;;;;;;;32.42;29.42;100737.09;5085957;28;20112;-72
2021/07/23 08:09:12;;;;;;;11.75;8.45;;;;;;;32.08;28.87;100732.31;5085882;28;20047;-71
2021/07/23 08:11:38;;;;;;;13.50;8.13;;;;;;;32.06;29.46;100731.59;5086130;28;20020;-72
2021/07/23 08:14:05;;;;;;;11.23;7.80;;;;;;;32.42;29.00;100731.72;5085684;28;20020;-73
2021/07/23 08:16:30;;;;;;;12.77;7.90;;;;;;;32.81;28.29;100729.81;5085442;28;20021;-70
2021/07/23 08:18:56;;;;;;;12.52;8.02;;;;;;;33.06;28.12;100733.59;5085745;28;20032;-72
2021/07/23 08:21:22;;;;;;;16.88;8.38;;;;;;;33.17;27.81;100745.13;5085586;28;20056;-72
2021/07/23 08:23:47;;;;;;;13.73;8.48;;;;;;;33.16;27.64;100744.31;5085374;28;20020;-71
2021/07/23 08:26:13;;;;;;;13.50;8.18;;;;;;;33.24;27.43;100735.47;5085302;28;20025;-70
2021/07/23 08:28:38;;;;;;;13.90;7.85;;;;;;;33.41;27.40;100740.97;5085604;28;20020;-72
2021/07/23 08:31:03;;;;;;;13.73;8.18;;;;;;;33.73;27.10;100735.03;5085227;28;20024;-71
2021/07/23 08:33:29;;;;;;;15.57;9.30;;;;;;;33.74;27.21;100735.88;5085093;28;20052;-72
2021/07/23 08:35:54;;;;;;;14.18;9.48;;;;;;;33.64;27.62;100741.38;5084016;28;20035;-72
2021/07/23 08:38:20;;;;;;;17.13;9.00;;;;;;;33.67;28.12;100746.44;5085089;28;20092;-72
2021/07/23 08:40:45;;;;;;;15.77;9.27;;;;;;;33.67;28.31;100737.50;5085467;28;20025;-73
2021/07/23 08:43:10;;;;;;;13.90;9.23;;;;;;;33.65;27.99;100740.34;5084953;28;20029;-72
2021/07/23 08:45:37;;;;;;;14.40;9.35;;;;;;;33.53;28.30;100739.75;5084421;28;20401;-73
2021/07/23 08:48:04;;;;;;;15.80;9.30;;;;;;;33.24;28.79;100751.63;5084835;28;20369;-72
2021/07/23 08:50:30;;;;;;;14.68;9.13;;;;;;;33.33;28.64;100742.59;5084816;28;20055;-72
2021/07/23 08:52:55;;;;;;;15.07;9.10;;;;;;;33.22;28.64;100745.53;5084776;28;20028;-72
2021/07/23 08:55:22;;;;;;;13.73;8.63;;;;;;;33.16;28.70;100759.59;5084970;28;20020;-72
2021/07/23 08:57:48;;;;;;;14.85;8.68;;;;;;;32.83;28.95;100750.16;5084496;28;20048;-72
2021/07/23 09:00:15;;;;;;;14.75;8.80;;;;;;;32.57;29.42;100740.16;5085109;28;20055;-72
2021/07/23 09:03:00;;;;;;;14.70;8.95;;;;;;;32.67;29.28;100745.47;5084495;28;20024;-72
2021/07/23 09:05:27;;;;;;;18.27;9.15;;;;;;;32.55;29.35;100746.66;5084797;28;20393;-73
2021/07/23 09:07:52;;;;;;;13.30;8.77;;;;;;;32.44;29.59;100753.06;5084679;28;20311;-72
2021/07/23 09:10:23;;;;;;;13.02;9.55;;;;;;;32.65;29.60;100745.59;5084792;28;20447;-72
2021/07/23 09:12:51;;;;;;;16.15;8.30;;;;;;;32.82;28.56;100748.50;5084339;28;20046;-72
2021/07/23 09:15:22;;;;;;;17.75;8.73;;;;;;;32.72;28.95;100745.00;5084631;28;20111;-72
2021/07/23 09:17:48;;;;;;;14.35;8.40;;;;;;;32.65;29.01;100736.72;5084477;28;20036;-72
2021/07/23 09:20:15;;;;;;;12.63;8.43;;;;;;;32.72;29.48;100737.78;5084344;28;20020;-72
2021/07/23 09:22:51;;;;;;;11.48;8.73;;;;;;;32.77;29.10;100746.25;5084138;28;20020;-72
2021/07/23 09:25:58;;;;;;;17.17;8.52;;;;;;;32.75;29.21;100739.34;5084120;28;20052;-72
2021/07/23 09:28:29;;;;;;;15.20;8.23;;;;;;;32.99;29.22;100738.75;5067975;28;20107;-72
2021/07/23 09:30:56;;;;;;;14.98;9.00;;;;;;;33.23;28.51;100744.56;5084500;28;20016;-72
2021/07/23 09:33:27;;;;;;;14.00;8.45;;;;;;;33.24;28.33;100741.72;5084003;28;20025;-72
2021/07/23 09:35:54;;;;;;;33.35;9.63;;;;;;;33.50;28.60;100748.13;5082918;28;20058;-72
2021/07/23 09:38:24;;;;;;;15.48;8.73;;;;;;;33.97;28.13;100746.09;5084323;28;20099;-72
2021/07/23 09:40:50;;;;;;;14.95;8.68;;;;;;;34.08;27.90;100750.38;5084022;28;20362;-73
2021/07/23 09:43:31;;;;;;;14.63;8.55;;;;;;;34.03;27.77;100756.22;5083899;28;20028;-72
2021/07/23 09:46:16;;;;;;;12.25;8.75;;;;;;;33.51;27.96;100749.81;5084013;28;20061;-73
2021/07/23 09:48:46;;;;;;;12.15;8.68;;;;;;;33.25;28.66;100753.28;5083650;28;20026;-72
2021/07/23 09:51:12;;;;;;;14.82;8.05;;;;;;;32.80;29.50;100747.78;5083940;28;20488;-72
2021/07/23 09:53:38;;;;;;;16.95;8.63;;;;;;;32.24;29.96;100755.81;5083922;28;20100;-72
2021/07/23 09:56:08;;;;;;;18.75;8.52;;;;;;;31.62;30.75;100752.56;5082885;28;20067;-72
2021/07/23 09:58:41;;;;;;;12.55;8.00;;;;;;;31.01;31.23;100757.19;5083989;28;20078;-73
2021/07/23 10:01:08;;;;;;;13.85;8.00;;;;;;;30.38;32.47;100756.44;5084019;28;20016;-72
2021/07/23 10:03:38;;;;;;;15.07;8.65;;;;;;;30.16;32.67;100755.63;5083434;28;20037;-71
2021/07/23 10:06:08;;;;;;;14.45;8.20;;;;;;;29.91;33.84;100753.22;5083806;28;20051;-70
2021/07/23 10:08:35;;;;;;;16.05;8.75;;;;;;;29.96;33.50;100758.19;5083725;28;20021;-71
2021/07/23 10:11:03;;;;;;;14.32;8.10;;;;;;;30.14;33.72;100761.13;5083648;28;20020;-70
2021/07/23 10:13:30;;;;;;;12.85;7.93;;;;;;;30.80;32.88;100761.69;5083514;28;20052;-71
2021/07/23 10:15:56;;;;;;;14.27;7.43;;;;;;;31.20;31.89;100769.78;5083641;28;20021;-72
2021/07/23 10:18:23;;;;;;;13.85;7.78;;;;;;;30.72;32.09;100764.16;5083644;28;20090;-73
2021/07/23 10:20:49;;;;;;;13.35;7.82;;;;;;;30.08;32.86;100764.31;5083611;28;20032;-73
2021/07/23 10:23:23;;;;;;;13.05;7.22;;;;;;;29.84;33.89;100760.09;5083329;28;20032;-72
2021/07/23 10:25:54;;;;;;;13.93;8.23;;;;;;;29.78;33.83;100764.13;5083549;28;20475;-72
2021/07/23 10:28:42;;;;;;;;;;;;;;;29.48;34.28;100757.69;5083973;28;20028;-72
2021/07/23 10:31:16;;;;;;;13.57;7.53;;;;;;;30.10;33.90;100756.16;5083665;28;20360;-73
2021/07/23 10:33:58;;;;;;;11.13;7.20;;;;;;;30.77;32.87;100753.03;5083314;28;20020;-74
2021/07/23 10:36:27;;;;;;;14.10;7.65;;;;;;;30.86;32.04;100762.13;5083602;28;20044;-72
2021/07/23 10:39:04;;;;;;;11.60;7.70;;;;;;;31.09;32.15;100765.38;5083483;28;20016;-73
2021/07/23 10:41:30;;;;;;;13.13;8.30;;;;;;;31.54;31.83;100755.97;5082258;28;20068;-72
2021/07/23 10:43:55;;;;;;;15.00;7.72;;;;;;;31.74;30.97;100753.25;5083190;28;20039;-72
2021/07/23 10:46:43;;;;;;;13.15;7.43;;;;;;;31.88;30.64;100754.66;5083413;28;20024;-72
2021/07/23 10:49:31;;;;;;;15.27;8.13;;;;;;;31.95;31.25;100746.88;5083565;28;20057;-72
2021/07/23 10:52:01;;;;;;;12.05;8.13;;;;;;;31.57;31.40;100757.50;5083276;28;20071;-73
2021/07/23 10:54:28;;;;;;;13.30;7.75;;;;;;;31.25;32.12;100764.84;5083214;28;20035;-72
2021/07/23 10:56:57;;;;;;;15.02;7.75;;;;;;;31.75;31.47;100762.16;5083168;28;20311;-73
2021/07/23 10:59:38;;;;;;;13.15;7.75;;;;;;;31.88;30.92;100757.34;5083488;28;20043;-73
2021/07/23 11:02:09;;;;;;;14.77;7.55;;;;;;;31.36;31.37;100763.03;5081957;28;20029;-72
2021/07/23 11:04:35;;;;;;;12.55;8.32;;;;;;;30.91;32.23;100755.34;5083245;28;20024;-73
2021/07/23 11:07:02;;;;;;;15.43;8.88;;;;;;;30.45;33.05;100762.13;5083472;28;20028;-73
2021/07/23 11:09:31;;;;;;;16.98;8.65;;;;;;;29.94;33.50;100747.63;5086993;28;20025;-72
2021/07/23 11:11:57;;;;;;;15.55;8.50;;;;;;;29.44;34.41;100751.75;5087582;28;20052;-72